sensor_id;sensor_type;location;lat;lon;timestamp;pressure;altitude;pressure_sealevel;temperature;humidity
22261;BME280;11299;43.202;27.920;2022-07-23T00:00:07;101105.81;;;21.21;100.00
22261;BME280;11299;43.202;27.920;2022-07-23T00:02:33;101104.28;;;21.01;100.00
22261;BME280;11299;43.202;27.920;2022-07-23T00:04:59;101132.59;;;21.18;100.00
22261;BME280;11299;43.202;27.920;2022-07-23T00:07:25;101129.47;;;21.20;100.00
22261;BME280;11299;43.202;27.920;2022-07-23T00:09:50;101155.09;;;21.32;100.00
22261;BME280;11299;43.202;27.920;2022-07-23T00:12:16;101155.28;;;21.22;100.00
22261;BME280;11299;43.202;27.920;2022-07-23T00:14:41;100969.75;;;19.86;100.00
22261;BME280;11299;43.202;27.920;2022-07-23T00:17:07;101151.00;;;21.38;100.00
22261;BME280;11299;43.202;27.920;2022-07-23T00:19:33;101145.91;;;21.40;100.00
22261;BME280;11299;43.202;27.920;2022-07-23T00:21:58;101113.00;;;21.27;100.00
22261;BME280;11299;43.202;27.920;2022-07-23T00:24:24;101094.91;;;21.06;100.00
22261;BME280;11299;43.202;27.920;2022-07-23T00:26:49;101107.81;;;21.07;100.00
22261;BME280;11299;43.202;27.920;2022-07-23T00:29:15;101051.78;;;20.83;100.00
22261;BME280;11299;43.202;27.920;2022-07-23T00:31:40;101143.81;;;21.32;100.00
22261;BME280;11299;43.202;27.920;2022-07-23T00:34:06;101082.19;;;20.95;100.00
22261;BME280;11299;43.202;27.920;2022-07-23T00:36:32;100995.72;;;20.51;100.00
22261;BME280;11299;43.202;27.920;2022-07-23T00:38:57;101108.44;;;21.04;100.00
22261;BME280;11299;43.202;27.920;2022-07-23T00:41:23;101142.91;;;21.36;100.00
22261;BME280;11299;43.202;27.920;2022-07-23T00:43:49;101171.56;;;21.25;100.00
22261;BME280;11299;43.202;27.920;2022-07-23T00:46:21;101102.09;;;21.12;100.00
22261;BME280;11299;43.202;27.920;2022-07-23T00:48:48;101138.84;;;21.29;100.00
22261;BME280;11299;43.202;27.920;2022-07-23T00:51:17;101129.56;;;21.28;100.00
22261;BME280;11299;43.202;27.920;2022-07-23T00:53:43;101087.09;;;21.03;100.00
22261;BME280;11299;43.202;27.920;2022-07-23T00:56:10;101145.00;;;21.31;100.00
22261;BME280;11299;43.202;27.920;2022-07-23T00:58:36;101099.28;;;21.12;100.00
22261;BME280;11299;43.202;27.920;2022-07-23T01:01:04;101116.56;;;21.19;100.00
22261;BME280;11299;43.202;27.920;2022-07-23T01:03:29;101122.56;;;21.26;100.00
22261;BME280;11299;43.202;27.920;2022-07-23T01:05:55;101076.16;;;20.60;100.00
22261;BME280;11299;43.202;27.920;2022-07-23T01:08:21;101115.13;;;21.08;100.00
22261;BME280;11299;43.202;27.920;2022-07-23T01:10:48;101147.91;;;21.26;100.00
22261;BME280;11299;43.202;27.920;2022-07-23T01:13:14;101079.38;;;20.95;100.00
22261;BME280;11299;43.202;27.920;2022-07-23T01:15:39;101082.19;;;20.95;100.00
22261;BME280;11299;43.202;27.920;2022-07-23T01:18:06;101131.63;;;21.36;100.00
22261;BME280;11299;43.202;27.920;2022-07-23T01:20:32;101135.25;;;21.37;100.00
22261;BME280;11299;43.202;27.920;2022-07-23T01:22:58;101083.00;;;20.95;100.00
22261;BME280;11299;43.202;27.920;2022-07-23T01:25:24;101102.81;;;21.17;100.00
22261;BME280;11299;43.202;27.920;2022-07-23T01:27:52;101124.00;;;21.37;100.00
22261;BME280;11299;43.202;27.920;2022-07-23T01:30:17;101111.22;;;21.31;100.00
22261;BME280;11299;43.202;27.920;2022-07-23T01:32:43;101041.66;;;20.96;100.00
22261;BME280;11299;43.202;27.920;2022-07-23T01:35:09;101049.78;;;20.84;100.00
22261;BME280;11299;43.202;27.920;2022-07-23T01:37:35;101091.75;;;21.21;100.00
22261;BME280;11299;43.202;27.920;2022-07-23T01:40:01;101082.16;;;21.22;100.00
22261;BME280;11299;43.202;27.920;2022-07-23T01:42:26;101065.00;;;21.10;100.00
22261;BME280;11299;43.202;27.920;2022-07-23T01:44:52;101121.53;;;21.35;100.00
22261;BME280;11299;43.202;27.920;2022-07-23T01:47:17;101133.16;;;21.42;100.00
22261;BME280;11299;43.202;27.920;2022-07-23T01:49:43;101099.03;;;21.22;100.00
22261;BME280;11299;43.202;27.920;2022-07-23T01:52:08;101132.16;;;21.38;100.00
22261;BME280;11299;43.202;27.920;2022-07-23T01:54:36;101116.09;;;21.39;100.00
22261;BME280;11299;43.202;27.920;2022-07-23T01:57:03;101118.81;;;21.44;100.00
22261;BME280;11299;43.202;27.920;2022-07-23T01:59:28;101109.03;;;21.28;100.00
22261;BME280;11299;43.202;27.920;2022-07-23T02:01:54;101062.38;;;21.00;100.00
22261;BME280;11299;43.202;27.920;2022-07-23T02:04:21;101076.34;;;21.05;100.00
22261;BME280;11299;43.202;27.920;2022-07-23T02:06:47;101119.25;;;21.24;100.00
22261;BME280;11299;43.202;27.920;2022-07-23T02:09:13;101010.59;;;20.24;100.00
22261;BME280;11299;43.202;27.920;2022-07-23T02:11:39;101032.13;;;20.83;100.00
22261;BME280;11299;43.202;27.920;2022-07-23T02:14:05;101112.03;;;21.31;100.00
22261;BME280;11299;43.202;27.920;2022-07-23T02:16:30;101038.66;;;20.79;100.00
22261;BME280;11299;43.202;27.920;2022-07-23T02:18:56;101133.75;;;21.31;100.00
22261;BME280;11299;43.202;27.920;2022-07-23T02:21:22;101126.09;;;21.31;100.00
22261;BME280;11299;43.202;27.920;2022-07-23T02:23:47;101125.31;;;21.31;100.00
22261;BME280;11299;43.202;27.920;2022-07-23T02:26:13;101100.53;;;21.06;100.00
22261;BME280;11299;43.202;27.920;2022-07-23T02:28:38;100988.13;;;20.38;100.00
22261;BME280;11299;43.202;27.920;2022-07-23T02:31:04;101119.50;;;21.14;100.00
22261;BME280;11299;43.202;27.920;2022-07-23T02:33:29;101121.34;;;21.05;100.00
22261;BME280;11299;43.202;27.920;2022-07-23T02:35:55;101114.25;;;20.94;100.00
22261;BME280;11299;43.202;27.920;2022-07-23T02:38:21;101132.06;;;20.89;100.00
22261;BME280;11299;43.202;27.920;2022-07-23T02:40:46;101091.34;;;20.59;100.00
22261;BME280;11299;43.202;27.920;2022-07-23T02:43:12;100933.69;;;19.47;100.00
22261;BME280;11299;43.202;27.920;2022-07-23T02:45:37;101090.94;;;20.52;100.00
22261;BME280;11299;43.202;27.920;2022-07-23T02:48:03;101139.03;;;20.78;100.00
22261;BME280;11299;43.202;27.920;2022-07-23T02:50:29;101051.03;;;20.23;100.00
22261;BME280;11299;43.202;27.920;2022-07-23T02:52:55;101067.59;;;20.38;100.00
22261;BME280;11299;43.202;27.920;2022-07-23T02:55:20;101121.03;;;20.66;100.00
22261;BME280;11299;43.202;27.920;2022-07-23T02:57:46;101121.94;;;20.47;100.00
22261;BME280;11299;43.202;27.920;2022-07-23T03:00:12;101089.47;;;20.41;100.00
22261;BME280;11299;43.202;27.920;2022-07-23T03:02:37;101051.72;;;20.02;100.00
22261;BME280;11299;43.202;27.920;2022-07-23T03:05:03;101091.66;;;20.44;100.00
22261;BME280;11299;43.202;27.920;2022-07-23T03:07:29;101103.81;;;20.53;100.00
22261;BME280;11299;43.202;27.920;2022-07-23T03:09:55;101156.72;;;20.79;100.00
22261;BME280;11299;43.202;27.920;2022-07-23T03:12:20;101130.28;;;20.66;100.00
22261;BME280;11299;43.202;27.920;2022-07-23T03:14:46;101130.59;;;20.65;100.00
22261;BME280;11299;43.202;27.920;2022-07-23T03:17:11;101071.16;;;20.30;100.00
22261;BME280;11299;43.202;27.920;2022-07-23T03:19:37;101163.00;;;20.89;100.00
22261;BME280;11299;43.202;27.920;2022-07-23T03:22:04;101150.59;;;20.77;100.00
22261;BME280;11299;43.202;27.920;2022-07-23T03:24:29;101123.63;;;20.62;100.00
22261;BME280;11299;43.202;27.920;2022-07-23T03:27:13;101052.19;;;20.22;100.00
22261;BME280;11299;43.202;27.920;2022-07-23T03:29:39;100991.16;;;19.82;100.00
22261;BME280;11299;43.202;27.920;2022-07-23T03:32:05;101166.84;;;20.93;100.00
22261;BME280;11299;43.202;27.920;2022-07-23T03:34:31;101083.50;;;20.29;100.00
22261;BME280;11299;43.202;27.920;2022-07-23T03:36:57;101134.88;;;20.76;100.00
22261;BME280;11299;43.202;27.920;2022-07-23T03:39:22;101173.59;;;20.79;100.00
22261;BME280;11299;43.202;27.920;2022-07-23T03:41:48;101180.69;;;20.90;100.00
22261;BME280;11299;43.202;27.920;2022-07-23T03:44:13;101120.28;;;20.60;100.00
22261;BME280;11299;43.202;27.920;2022-07-23T03:46:39;101164.34;;;20.92;100.00
22261;BME280;11299;43.202;27.920;2022-07-23T03:49:04;101138.81;;;20.88;100.00
22261;BME280;11299;43.202;27.920;2022-07-23T03:51:30;101162.81;;;21.13;100.00
22261;BME280;11299;43.202;27.920;2022-07-23T03:53:56;101055.13;;;20.44;100.00
22261;BME280;11299;43.202;27.920;2022-07-23T03:56:21;101154.38;;;21.13;100.00
22261;BME280;11299;43.202;27.920;2022-07-23T03:58:47;101136.97;;;21.11;100.00
22261;BME280;11299;43.202;27.920;2022-07-23T04:01:13;101059.19;;;20.66;100.00
22261;BME280;11299;43.202;27.920;2022-07-23T04:03:38;101147.38;;;21.24;100.00
22261;BME280;11299;43.202;27.920;2022-07-23T04:06:05;101129.06;;;21.13;100.00
22261;BME280;11299;43.202;27.920;2022-07-23T04:08:31;101150.50;;;21.36;100.00
22261;BME280;11299;43.202;27.920;2022-07-23T04:10:57;101173.78;;;21.50;100.00
22261;BME280;11299;43.202;27.920;2022-07-23T04:13:22;101163.78;;;21.58;100.00
22261;BME280;11299;43.202;27.920;2022-07-23T04:15:48;101159.19;;;21.62;100.00
22261;BME280;11299;43.202;27.920;2022-07-23T04:18:14;101148.75;;;21.62;100.00
22261;BME280;11299;43.202;27.920;2022-07-23T04:20:42;101180.00;;;21.74;100.00
22261;BME280;11299;43.202;27.920;2022-07-23T04:23:08;101161.44;;;21.87;100.00
22261;BME280;11299;43.202;27.920;2022-07-23T04:25:35;101159.31;;;21.92;100.00
22261;BME280;11299;43.202;27.920;2022-07-23T04:28:01;101179.03;;;22.14;100.00
22261;BME280;11299;43.202;27.920;2022-07-23T04:30:26;101163.63;;;22.12;100.00
22261;BME280;11299;43.202;27.920;2022-07-23T04:32:52;101125.91;;;21.99;100.00
22261;BME280;11299;43.202;27.920;2022-07-23T04:35:17;101141.41;;;21.88;100.00
22261;BME280;11299;43.202;27.920;2022-07-23T04:37:43;101177.53;;;22.30;100.00
22261;BME280;11299;43.202;27.920;2022-07-23T04:40:09;101095.31;;;21.84;100.00
22261;BME280;11299;43.202;27.920;2022-07-23T04:42:35;101181.00;;;22.27;100.00
22261;BME280;11299;43.202;27.920;2022-07-23T04:45:00;101155.88;;;22.17;100.00
22261;BME280;11299;43.202;27.920;2022-07-23T04:47:26;101134.34;;;21.99;100.00
22261;BME280;11299;43.202;27.920;2022-07-23T04:49:51;101158.56;;;22.22;100.00
22261;BME280;11299;43.202;27.920;2022-07-23T04:52:17;101163.94;;;22.32;100.00
22261;BME280;11299;43.202;27.920;2022-07-23T04:54:42;101085.72;;;21.85;100.00
22261;BME280;11299;43.202;27.920;2022-07-23T04:57:08;101171.53;;;22.54;100.00
22261;BME280;11299;43.202;27.920;2022-07-23T04:59:33;101133.81;;;22.41;100.00
22261;BME280;11299;43.202;27.920;2022-07-23T05:01:59;101153.91;;;22.71;100.00
22261;BME280;11299;43.202;27.920;2022-07-23T05:04:24;101159.25;;;22.81;100.00
22261;BME280;11299;43.202;27.920;2022-07-23T05:06:50;101155.50;;;22.94;100.00
22261;BME280;11299;43.202;27.920;2022-07-23T05:09:15;101167.00;;;23.06;100.00
22261;BME280;11299;43.202;27.920;2022-07-23T05:11:41;101191.03;;;23.34;100.00
22261;BME280;11299;43.202;27.920;2022-07-23T05:14:06;101159.75;;;23.22;100.00
22261;BME280;11299;43.202;27.920;2022-07-23T05:16:32;101025.97;;;22.58;100.00
22261;BME280;11299;43.202;27.920;2022-07-23T05:18:57;101154.88;;;23.53;100.00
22261;BME280;11299;43.202;27.920;2022-07-23T05:21:23;101186.78;;;23.79;100.00
22261;BME280;11299;43.202;27.920;2022-07-23T05:23:48;101178.50;;;23.91;100.00
22261;BME280;11299;43.202;27.920;2022-07-23T05:26:14;101156.91;;;23.95;100.00
22261;BME280;11299;43.202;27.920;2022-07-23T05:28:39;101203.63;;;24.27;100.00
22261;BME280;11299;43.202;27.920;2022-07-23T05:31:05;101197.28;;;24.39;100.00
22261;BME280;11299;43.202;27.920;2022-07-23T05:33:31;101168.22;;;24.30;100.00
22261;BME280;11299;43.202;27.920;2022-07-23T05:36:01;101140.28;;;24.19;100.00
22261;BME280;11299;43.202;27.920;2022-07-23T05:38:27;101067.81;;;23.89;100.00
22261;BME280;11299;43.202;27.920;2022-07-23T05:40:52;101148.75;;;24.28;100.00
22261;BME280;11299;43.202;27.920;2022-07-23T05:43:18;101130.44;;;24.34;100.00
22261;BME280;11299;43.202;27.920;2022-07-23T05:45:43;101125.44;;;24.40;100.00
22261;BME280;11299;43.202;27.920;2022-07-23T05:48:09;101198.81;;;24.99;100.00
22261;BME280;11299;43.202;27.920;2022-07-23T05:50:34;101164.88;;;24.99;99.41
22261;BME280;11299;43.202;27.920;2022-07-23T05:53:00;101102.56;;;24.79;98.65
22261;BME280;11299;43.202;27.920;2022-07-23T05:55:25;101174.91;;;25.26;98.87
22261;BME280;11299;43.202;27.920;2022-07-23T05:57:57;101133.19;;;25.06;98.75
22261;BME280;11299;43.202;27.920;2022-07-23T06:00:23;101057.88;;;24.93;98.29
22261;BME280;11299;43.202;27.920;2022-07-23T06:02:49;101180.31;;;25.89;97.33
22261;BME280;11299;43.202;27.920;2022-07-23T06:05:14;101111.69;;;25.63;96.91
22261;BME280;11299;43.202;27.920;2022-07-23T06:07:40;101181.34;;;26.47;96.18
22261;BME280;11299;43.202;27.920;2022-07-23T06:10:06;101191.78;;;26.55;94.96
22261;BME280;11299;43.202;27.920;2022-07-23T06:12:32;101135.00;;;26.43;93.96
22261;BME280;11299;43.202;27.920;2022-07-23T06:14:57;101190.63;;;27.01;93.74
22261;BME280;11299;43.202;27.920;2022-07-23T06:17:23;101177.50;;;27.08;93.11
22261;BME280;11299;43.202;27.920;2022-07-23T06:19:48;101192.78;;;27.40;91.22
22261;BME280;11299;43.202;27.920;2022-07-23T06:22:14;101168.28;;;27.35;86.42
22261;BME280;11299;43.202;27.920;2022-07-23T06:24:40;101165.22;;;27.40;87.00
22261;BME280;11299;43.202;27.920;2022-07-23T06:27:05;101154.97;;;27.63;81.51
22261;BME280;11299;43.202;27.920;2022-07-23T06:29:31;101143.59;;;27.75;79.18
22261;BME280;11299;43.202;27.920;2022-07-23T06:31:56;101163.91;;;28.02;76.25
22261;BME280;11299;43.202;27.920;2022-07-23T06:34:22;101046.16;;;27.23;76.42
22261;BME280;11299;43.202;27.920;2022-07-23T06:36:47;101186.84;;;28.21;74.07
22261;BME280;11299;43.202;27.920;2022-07-23T06:39:13;101184.63;;;28.42;73.61
22261;BME280;11299;43.202;27.920;2022-07-23T06:41:38;101167.41;;;28.23;75.01
22261;BME280;11299;43.202;27.920;2022-07-23T06:44:04;101175.00;;;28.74;73.02
22261;BME280;11299;43.202;27.920;2022-07-23T06:46:30;101091.91;;;28.25;71.45
22261;BME280;11299;43.202;27.920;2022-07-23T06:48:55;101208.63;;;28.84;68.85
22261;BME280;11299;43.202;27.920;2022-07-23T06:51:21;101171.44;;;28.93;70.50
22261;BME280;11299;43.202;27.920;2022-07-23T06:53:46;101154.63;;;29.03;69.23
22261;BME280;11299;43.202;27.920;2022-07-23T06:56:12;101168.13;;;29.37;69.33
22261;BME280;11299;43.202;27.920;2022-07-23T06:58:38;101188.03;;;29.68;69.41
22261;BME280;11299;43.202;27.920;2022-07-23T07:01:03;101144.94;;;29.54;66.09
22261;BME280;11299;43.202;27.920;2022-07-23T07:03:29;101189.63;;;30.01;65.24
22261;BME280;11299;43.202;27.920;2022-07-23T07:05:55;101204.16;;;30.30;64.57
22261;BME280;11299;43.202;27.920;2022-07-23T07:08:23;101184.88;;;30.43;64.90
22261;BME280;11299;43.202;27.920;2022-07-23T07:10:49;101204.84;;;30.62;63.23
22261;BME280;11299;43.202;27.920;2022-07-23T07:13:14;101194.56;;;30.80;63.01
22261;BME280;11299;43.202;27.920;2022-07-23T07:15:40;101193.81;;;30.83;63.78
22261;BME280;11299;43.202;27.920;2022-07-23T07:18:06;101209.53;;;31.15;60.64
22261;BME280;11299;43.202;27.920;2022-07-23T07:20:31;101205.72;;;31.30;59.22
22261;BME280;11299;43.202;27.920;2022-07-23T07:22:57;101194.22;;;31.49;58.31
22261;BME280;11299;43.202;27.920;2022-07-23T07:25:22;101180.06;;;31.57;57.20
22261;BME280;11299;43.202;27.920;2022-07-23T07:27:48;101177.50;;;31.78;54.74
22261;BME280;11299;43.202;27.920;2022-07-23T07:30:13;101123.50;;;31.73;53.21
22261;BME280;11299;43.202;27.920;2022-07-23T07:32:39;101144.38;;;32.03;52.73
22261;BME280;11299;43.202;27.920;2022-07-23T07:35:06;101165.69;;;32.38;53.41
22261;BME280;11299;43.202;27.920;2022-07-23T07:37:31;101161.00;;;32.53;58.30
22261;BME280;11299;43.202;27.920;2022-07-23T07:39:57;101201.41;;;32.81;75.29
22261;BME280;11299;43.202;27.920;2022-07-23T07:42:23;101058.50;;;31.40;84.95
22261;BME280;11299;43.202;27.920;2022-07-23T07:44:48;101223.56;;;31.95;91.27
22261;BME280;11299;43.202;27.920;2022-07-23T07:47:14;101170.59;;;31.53;97.60
22261;BME280;11299;43.202;27.920;2022-07-23T07:49:41;101202.56;;;31.35;92.74
22261;BME280;11299;43.202;27.920;2022-07-23T07:52:07;101217.13;;;30.85;100.00
22261;BME280;11299;43.202;27.920;2022-07-23T07:54:33;101195.53;;;30.46;100.00
22261;BME280;11299;43.202;27.920;2022-07-23T07:56:58;101056.63;;;29.93;99.75
22261;BME280;11299;43.202;27.920;2022-07-23T07:59:24;101212.25;;;30.67;100.00
22261;BME280;11299;43.202;27.920;2022-07-23T08:01:51;101223.13;;;30.80;92.29
22261;BME280;11299;43.202;27.920;2022-07-23T08:04:16;101180.78;;;30.82;96.84
22261;BME280;11299;43.202;27.920;2022-07-23T08:06:42;101060.47;;;30.23;92.76
22261;BME280;11299;43.202;27.920;2022-07-23T08:09:08;101208.34;;;31.16;92.81
22261;BME280;11299;43.202;27.920;2022-07-23T08:11:33;101200.59;;;30.94;88.92
22261;BME280;11299;43.202;27.920;2022-07-23T08:13:59;101237.34;;;31.18;91.63
22261;BME280;11299;43.202;27.920;2022-07-23T08:16:25;101215.50;;;31.29;93.49
22261;BME280;11299;43.202;27.920;2022-07-23T08:18:50;101216.72;;;31.51;91.41
22261;BME280;11299;43.202;27.920;2022-07-23T08:21:15;101218.28;;;31.71;90.08
22261;BME280;11299;43.202;27.920;2022-07-23T08:23:41;101218.28;;;31.97;89.53
22261;BME280;11299;43.202;27.920;2022-07-23T08:26:07;101168.69;;;31.90;83.84
22261;BME280;11299;43.202;27.920;2022-07-23T08:28:32;101133.19;;;31.65;81.66
22261;BME280;11299;43.202;27.920;2022-07-23T08:30:58;101207.34;;;32.03;75.61
22261;BME280;11299;43.202;27.920;2022-07-23T08:33:24;101212.47;;;32.20;81.09
22261;BME280;11299;43.202;27.920;2022-07-23T08:35:51;101113.81;;;31.81;83.55
22261;BME280;11299;43.202;27.920;2022-07-23T08:38:20;101211.72;;;32.23;85.45
22261;BME280;11299;43.202;27.920;2022-07-23T08:40:48;100898.72;;;30.01;80.46
22261;BME280;11299;43.202;27.920;2022-07-23T08:43:16;101211.75;;;32.26;80.66
22261;BME280;11299;43.202;27.920;2022-07-23T08:45:45;101208.13;;;32.00;84.67
22261;BME280;11299;43.202;27.920;2022-07-23T08:48:13;101187.66;;;31.98;83.49
22261;BME280;11299;43.202;27.920;2022-07-23T08:50:43;101108.78;;;31.18;84.16
22261;BME280;11299;43.202;27.920;2022-07-23T08:53:09;101231.19;;;32.14;84.17
22261;BME280;11299;43.202;27.920;2022-07-23T08:55:35;101190.16;;;31.77;83.98
22261;BME280;11299;43.202;27.920;2022-07-23T08:58:01;101167.81;;;31.86;85.60
22261;BME280;11299;43.202;27.920;2022-07-23T09:00:27;101248.81;;;32.16;86.69
22261;BME280;11299;43.202;27.920;2022-07-23T09:02:53;101217.09;;;32.28;86.46
22261;BME280;11299;43.202;27.920;2022-07-23T09:05:19;101219.44;;;32.49;86.69
22261;BME280;11299;43.202;27.920;2022-07-23T09:10:55;101219.31;;;32.75;79.55
22261;BME280;11299;43.202;27.920;2022-07-23T09:13:32;101182.06;;;32.38;84.36
22261;BME280;11299;43.202;27.920;2022-07-23T09:19:03;101220.13;;;32.42;78.96
22261;BME280;11299;43.202;27.920;2022-07-23T09:21:30;101104.81;;;31.79;81.18
22261;BME280;11299;43.202;27.920;2022-07-23T09:26:39;101237.75;;;33.10;76.82
22261;BME280;11299;43.202;27.920;2022-07-23T09:29:24;101229.41;;;33.39;71.44
22261;BME280;11299;43.202;27.920;2022-07-23T09:31:54;101194.09;;;33.27;71.89
22261;BME280;11299;43.202;27.920;2022-07-23T09:36:54;101026.22;;;32.39;73.97
22261;BME280;11299;43.202;27.920;2022-07-23T09:39:32;101044.47;;;32.57;73.39
22261;BME280;11299;43.202;27.920;2022-07-23T09:44:42;101204.56;;;34.07;70.80
22261;BME280;11299;43.202;27.920;2022-07-23T09:47:08;101235.59;;;34.49;70.92
22261;BME280;11299;43.202;27.920;2022-07-23T09:49:34;101240.59;;;34.70;70.95
22261;BME280;11299;43.202;27.920;2022-07-23T09:52:00;101201.97;;;34.67;67.72
22261;BME280;11299;43.202;27.920;2022-07-23T09:54:40;101217.25;;;34.89;64.96
22261;BME280;11299;43.202;27.920;2022-07-23T09:57:11;101203.22;;;34.59;64.40
22261;BME280;11299;43.202;27.920;2022-07-23T09:59:43;101176.94;;;34.57;61.60
22261;BME280;11299;43.202;27.920;2022-07-23T10:02:11;101206.16;;;34.80;59.11
22261;BME280;11299;43.202;27.920;2022-07-23T10:04:39;101220.44;;;34.59;59.47
22261;BME280;11299;43.202;27.920;2022-07-23T10:07:07;101205.56;;;34.43;61.60
22261;BME280;11299;43.202;27.920;2022-07-23T10:09:37;101230.16;;;34.37;62.42
22261;BME280;11299;43.202;27.920;2022-07-23T10:12:04;101101.81;;;33.62;63.12
22261;BME280;11299;43.202;27.920;2022-07-23T10:14:59;101176.97;;;33.85;63.67
22261;BME280;11299;43.202;27.920;2022-07-23T10:17:27;101150.19;;;33.71;62.75
22261;BME280;11299;43.202;27.920;2022-07-23T10:19:53;101225.63;;;34.33;63.35
22261;BME280;11299;43.202;27.920;2022-07-23T10:22:22;101224.09;;;34.53;61.51
22261;BME280;11299;43.202;27.920;2022-07-23T10:28:06;101225.97;;;34.17;64.37
22261;BME280;11299;43.202;27.920;2022-07-23T10:31:00;101210.31;;;34.07;65.50
22261;BME280;11299;43.202;27.920;2022-07-23T10:33:53;101292.88;;;34.28;66.78
22261;BME280;11299;43.202;27.920;2022-07-23T10:37:15;101225.19;;;34.27;68.53
22261;BME280;11299;43.202;27.920;2022-07-23T10:40:28;101231.88;;;34.52;72.36
22261;BME280;11299;43.202;27.920;2022-07-23T10:42:59;101152.59;;;34.30;71.92
22261;BME280;11299;43.202;27.920;2022-07-23T10:45:34;101163.78;;;34.53;71.50
22261;BME280;11299;43.202;27.920;2022-07-23T10:51:14;101223.91;;;35.11;74.13
22261;BME280;11299;43.202;27.920;2022-07-23T10:56:15;101061.91;;;34.18;72.25
22261;BME280;11299;43.202;27.920;2022-07-23T10:58:48;101206.66;;;35.18;71.93
22261;BME280;11299;43.202;27.920;2022-07-23T11:01:35;101202.53;;;35.04;72.52
22261;BME280;11299;43.202;27.920;2022-07-23T11:04:02;101207.44;;;34.97;74.90
22261;BME280;11299;43.202;27.920;2022-07-23T11:09:40;101217.28;;;34.96;75.71
22261;BME280;11299;43.202;27.920;2022-07-23T11:15:06;101210.75;;;35.06;78.14
22261;BME280;11299;43.202;27.920;2022-07-23T11:17:37;101205.81;;;35.07;78.97
22261;BME280;11299;43.202;27.920;2022-07-23T11:22:38;101205.66;;;34.57;82.53
22261;BME280;11299;43.202;27.920;2022-07-23T11:25:04;101205.72;;;34.78;81.53
22261;BME280;11299;43.202;27.920;2022-07-23T11:27:41;101077.03;;;34.01;81.35
22261;BME280;11299;43.202;27.920;2022-07-23T11:33:15;101208.56;;;34.64;79.66
22261;BME280;11299;43.202;27.920;2022-07-23T11:35:44;101167.81;;;34.38;75.60
22261;BME280;11299;43.202;27.920;2022-07-23T11:38:16;101176.13;;;34.60;76.67
22261;BME280;11299;43.202;27.920;2022-07-23T11:40:51;101201.66;;;34.93;77.00
22261;BME280;11299;43.202;27.920;2022-07-23T11:43:28;101113.75;;;34.57;78.52
22261;BME280;11299;43.202;27.920;2022-07-23T11:45:59;101174.59;;;35.16;77.54
22261;BME280;11299;43.202;27.920;2022-07-23T11:48:39;101089.06;;;34.42;76.66
22261;BME280;11299;43.202;27.920;2022-07-23T11:51:07;100966.47;;;33.43;79.29
22261;BME280;11299;43.202;27.920;2022-07-23T11:53:33;101023.59;;;33.69;80.72
22261;BME280;11299;43.202;27.920;2022-07-23T11:56:07;101175.75;;;34.65;80.91
22261;BME280;11299;43.202;27.920;2022-07-23T11:58:33;101167.91;;;34.55;82.82
22261;BME280;11299;43.202;27.920;2022-07-23T12:00:58;101151.88;;;34.54;81.77
22261;BME280;11299;43.202;27.920;2022-07-23T12:03:24;101182.69;;;34.68;82.76
22261;BME280;11299;43.202;27.920;2022-07-23T12:05:56;101195.06;;;34.89;85.37
22261;BME280;11299;43.202;27.920;2022-07-23T12:08:21;101195.94;;;35.11;84.44
22261;BME280;11299;43.202;27.920;2022-07-23T12:10:47;101182.34;;;34.90;84.21
22261;BME280;11299;43.202;27.920;2022-07-23T12:13:14;101204.16;;;35.05;83.65
22261;BME280;11299;43.202;27.920;2022-07-23T12:15:42;101145.81;;;34.94;82.55
22261;BME280;11299;43.202;27.920;2022-07-23T12:18:11;101184.06;;;35.13;82.69
22261;BME280;11299;43.202;27.920;2022-07-23T12:20:39;101172.97;;;35.22;82.60
22261;BME280;11299;43.202;27.920;2022-07-23T12:23:07;101129.84;;;35.25;82.31
22261;BME280;11299;43.202;27.920;2022-07-23T12:25:38;101158.16;;;35.76;80.82
22261;BME280;11299;43.202;27.920;2022-07-23T12:28:07;101155.28;;;35.58;79.82
22261;BME280;11299;43.202;27.920;2022-07-23T12:30:47;101196.81;;;35.57;80.77
22261;BME280;11299;43.202;27.920;2022-07-23T12:35:57;101139.28;;;35.57;78.95
22261;BME280;11299;43.202;27.920;2022-07-23T12:38:24;101184.47;;;35.60;79.71
22261;BME280;11299;43.202;27.920;2022-07-23T12:40:53;101152.41;;;35.27;80.87
22261;BME280;11299;43.202;27.920;2022-07-23T12:43:23;101176.25;;;35.76;82.56
22261;BME280;11299;43.202;27.920;2022-07-23T12:48:29;101164.75;;;35.24;81.91
22261;BME280;11299;43.202;27.920;2022-07-23T12:51:00;101005.41;;;34.65;81.06
22261;BME280;11299;43.202;27.920;2022-07-23T12:53:31;101098.63;;;35.24;80.40
22261;BME280;11299;43.202;27.920;2022-07-23T12:56:04;101150.38;;;35.59;80.56
22261;BME280;11299;43.202;27.920;2022-07-23T13:01:33;101165.56;;;35.77;80.61
22261;BME280;11299;43.202;27.920;2022-07-23T13:04:05;101172.91;;;35.85;80.58
22261;BME280;11299;43.202;27.920;2022-07-23T13:06:37;101141.72;;;35.66;80.60
22261;BME280;11299;43.202;27.920;2022-07-23T13:09:07;101144.22;;;35.50;80.17
22261;BME280;11299;43.202;27.920;2022-07-23T13:11:33;101128.59;;;35.30;79.91
22261;BME280;11299;43.202;27.920;2022-07-23T13:13:59;101141.75;;;35.10;82.73
22261;BME280;11299;43.202;27.920;2022-07-23T13:16:30;101170.91;;;35.15;83.23
22261;BME280;11299;43.202;27.920;2022-07-23T13:18:56;101169.69;;;35.13;84.64